Weather at Giles Point Airport

Public forecast

Using degrees Celsius for public forecast. Weather courtesy of forecast.io.

Closest aviation weather report (METAR) to Giles Point Airport

Closest report is Port Hedland International Airport, 177.3 nm (328.3 km) N.

2024/05/26 20:30 (retrieved 25 minutes ago)

YPPD 262030Z AUTO 18007KT 9999 // NCD 18/05 Q1015 RF000/0000

Closest aviation forecast (TAF) to Giles Point Airport

Closest forecast is Port Hedland International Airport, 177.3 nm (328.3 km) N.

2024/05/26 18:36 (retrieved 2 hours ago)

TAF YPPD 261701Z 2618/2718 13008KT CAVOK FM270000 10018KT CAVOK BECMG 2704/2705 02014KT CAVOK FM271000 33010KT CAVOK FM271400 21005KT CAVOK